Lamco Airport

Jump to: basic info | weather | comments

Related pages: nearby airports | nearby navaids | notams | map

Basic information (top)

Codes: UCN GLLB
Location: lon 5.867000, lat -10.050000, elev 30 ft / 9 m msl
Status: small_airport
Scheduled airline service: no
Links: Wikipedia Mobile

Weather (top)

Current conditions for Roberts International Airport 29nm (53km) NW (rec'd 2014/10/25 11:30Z):

GLRB 251130Z 00000KT 9999 BKN018 30/25 Q1012 NOSIG

Airport forecast for Roberts International Airport 29nm (53km) NW (rec'd 2014/10/25 06:54Z):

TAF TAF GLRB 250400Z 2506/2612 23011KT 9999 BKN018 FEW025 CB 
      BECMG 2506/2508 04004KT 6000 SCT011 
     FM251000 22010KT 9999 BKN017 
      TEMPO 2517/2521 07008KT 8000 SHRA/TSRA BKN013 FEW023CB

Latest comments (top)

No comments yet for Lamco Airport

More... (top)

See also NOTAMs and nearby airports and navaids, or visit the Lamco Airport page at the main OurAirports website..